Address 0x942149e78979931b1c6aea68cc1428c65675901e 1

 
 
Txn Hash Method
Block
From
To
Value [Txn Fee]
0xef5eac9ca4e3191e2b04f56f066d4ad5258a53304be7a2d6e7d7a98ca8b0c612Transfer131789022021-12-04 5:18:2923 hrs 48 mins ago0x942149e78979931b1c6aea68cc1428c65675901eOUT 0x42be29132756ddd6e8b3b94584ca0bab20545eec0 BNB0.000255745
0xe12a305af1a74a5776a1879fdaf419cd6223b8a28752a6f8aa2290a7779ab3e4Transfer131569882021-12-03 10:46:041 day 18 hrs ago0x942149e78979931b1c6aea68cc1428c65675901eOUT 0x42be29132756ddd6e8b3b94584ca0bab20545eec0 BNB0.000255805
0x9078ba7b41a82f958239a8d7e175edc2b329b1b9073f95774f238d589dec0db9Transfer126429152021-11-14 13:18:1620 days 15 hrs ago0x942149e78979931b1c6aea68cc1428c65675901eOUT0xdb3b8baa01a764490726361b49a71e1160e1043c0.087602694018835 BNB0.000105
0xafdd88ea47bf216dff4034b1e0facd6df4f9b7a4d68c8cef7761a5bd5da19956Transfer126428072021-11-14 13:12:4820 days 15 hrs ago0x5b1864cb38e96d3d25592c787d481b637abc4def IN 0x942149e78979931b1c6aea68cc1428c65675901e0.15696704 BNB0.000294
0xbcceae81a0ca81da4de4587af361645a485d26a37308c38987032fd7157ba530Swap Exact ETH F...126424432021-11-14 12:51:5820 days 16 hrs ago0x942149e78979931b1c6aea68cc1428c65675901eOUT PancakeSwap: Router v20.069 BNB0.00277076
0xcae2214be080d1d10b6219f4f9517f5a695f083b2f7223510c6759d791949df8Transfer124607592021-11-08 1:29:4327 days 3 hrs ago0x942149e78979931b1c6aea68cc1428c65675901eOUT 0x42be29132756ddd6e8b3b94584ca0bab20545eec0 BNB0.000180745
0x52af47ce5b4b51526d3b9a541594930de6d92f751b9981f788b7cbcaebc115fcTransfer124607182021-11-08 1:27:4027 days 3 hrs ago0x942149e78979931b1c6aea68cc1428c65675901eOUT 0x42be29132756ddd6e8b3b94584ca0bab20545eec0 BNB0.000180745
0x8cc19315b409eac25ed634bad305fc06b30ab536da5be9de7a7ac9600a55b9eaTransfer Out124123332021-11-06 8:50:2528 days 20 hrs ago0x942149e78979931b1c6aea68cc1428c65675901eOUT BSC: Token Hub0.04556354 BNB0.000381935
0x4100cf6759419b1f280a97dbd3efe352f25c2e9799019fd2837da08b10a8eb8aTransfer124059512021-11-06 3:27:4929 days 1 hr ago0x942149e78979931b1c6aea68cc1428c65675901eOUT0xb19c95cfa7d1f984f27f6cda643e8ff92c1edaa30.009 BNB0.000105
0x857c00a1682c5408932edbdf6de79be9bca59e6c940549dfa301a73543252f4aTransfer124059042021-11-06 3:25:2829 days 1 hr ago0x942149e78979931b1c6aea68cc1428c65675901eOUT 0x42be29132756ddd6e8b3b94584ca0bab20545eec0 BNB0.000180745
0xb10bf26a1da2d4d31551fd8647b76277c7423c8e256d68e6fb327ca64a3179f3Transfer Out122734192021-11-01 9:43:5233 days 19 hrs ago0x942149e78979931b1c6aea68cc1428c65675901eOUT BSC: Token Hub0.10081583 BNB0.000402995
0x3aa3d73ed3ba5da5543bda0cba7664f4fbbdc7d3d9b0f853dade02e7f7026ee5Transfer122726952021-11-01 9:05:5233 days 20 hrs ago0x5b1864cb38e96d3d25592c787d481b637abc4def IN 0x942149e78979931b1c6aea68cc1428c65675901e0.19221953 BNB0.000294
0xfae5ff55e678ef049235900b522c72ea6b9f78f4bb33737a822f05508b1f342eTransfer120972532021-10-26 4:22:0640 days 44 mins ago0x942149e78979931b1c6aea68cc1428c65675901eOUT 0x42be29132756ddd6e8b3b94584ca0bab20545eec0 BNB0.000180745
0xee1c5199b7121301e4e420f79d6e4bc687924a5ed7665c1f503c701d0e86cdc3Token Sale118741082021-10-18 7:47:4747 days 21 hrs ago0x942149e78979931b1c6aea68cc1428c65675901eOUT USDMOON: MUSD Token0.001 BNB0.000358485
0x0993e783d4c4d961f988578d6954ba1cd2650e3812d290e51ff40a015ec275e0Get Airdrop118740662021-10-18 7:45:4147 days 21 hrs ago0x942149e78979931b1c6aea68cc1428c65675901eOUT 0x906cab9466e07ac0424a2831832d42cabd9eb2bc0 BNB0.00036861
0x12d15af1680a0e60f22ea004e3f3bd9808c05b269422616ed88ae676bdb40695Get Airdrop118740372021-10-18 7:44:1447 days 21 hrs ago0x942149e78979931b1c6aea68cc1428c65675901eOUT 0x7d0deacddf11dce0fb3a6c3f73f55cb05507dc8c0 BNB0.00036861
0xf202dbb75b422711df6c4085bb0b84f97b902b0db103f177e5d83d38cc25c44eAirdrop118739382021-10-18 7:39:1747 days 21 hrs ago0x942149e78979931b1c6aea68cc1428c65675901eOUT 0xa402965dfb7d2de13abd68b850cdaaf3cec634110.005 BNB0.000392665
0xe1dfde253b25761c55a6bde6dbe6e1e8eaf97b50eb713036ee9962c3d6852a54Get Airdrop118739182021-10-18 7:38:1747 days 21 hrs ago0x942149e78979931b1c6aea68cc1428c65675901eOUT 0x0b310561f53306bcece38a4d6b8544d14f16496e0 BNB0.000378325
0x9939f0c307e9fced79ca7a4debee1be8dbfd9d39263029e83e948a67a4e473acGet Airdrop118738472021-10-18 7:34:4447 days 21 hrs ago0x942149e78979931b1c6aea68cc1428c65675901eOUT 0x8239261458d22bd909c7796257f3ecc0017532930 BNB0.00036861
0x897e4e743a9dab32e8f6316d66da16c0406486df52465dc0104d57e4cae18072Get Airdrop118738202021-10-18 7:33:2347 days 21 hrs ago0x942149e78979931b1c6aea68cc1428c65675901eOUT 0xfe956e3356c1d252e612490ed26f4db0a8770d2a0 BNB0.00036861
0x10cc8ef233cf857cf688d5430bf84e8747106107f03033270e0c1c9cf07a6628Get Airdrop118737902021-10-18 7:31:5347 days 21 hrs ago0x942149e78979931b1c6aea68cc1428c65675901eOUT COX SWAP: COX Token0 BNB0.00036861
0x9f0e1fd0d4e2a0bcf09f7296d3261d556e4aa7bef055e50a95dfedc4bb7e5142Get Airdrop118737182021-10-18 7:28:1747 days 21 hrs ago0x942149e78979931b1c6aea68cc1428c65675901eOUT 0x7895b3de4169635da889ca842740748136ac7b110 BNB0.000378325
0x09da660bff52590ba395ddcb76b00b5980796c1412e5d98c00c44e3ac4669846Get Airdrop118737012021-10-18 7:27:2647 days 21 hrs ago0x942149e78979931b1c6aea68cc1428c65675901eOUT 0x10b7be52636882d7eca1611144a9df7642f95b5d0 BNB0.000378325
0x59bd863bd9d114f21084309de0df680d4e6d84ca604f44ece7f21ef59d16ebc3Airdrop118736582021-10-18 7:25:1747 days 21 hrs ago0x942149e78979931b1c6aea68cc1428c65675901eOUT 0x2ac8f06a3165f38bf582c5d2edc22b245889bd2f0.002 BNB0.000392725
0x45fa959302663bf7800f426cceeebe21431eeb82dc800100c24278b760819b3dTransfer116115762021-10-09 3:07:1457 days 1 hr ago0x942149e78979931b1c6aea68cc1428c65675901eOUT 0x42be29132756ddd6e8b3b94584ca0bab20545eec0 BNB0.000180745
[ Download CSV Export 
Latest 3 internal transactions
Parent Txn Hash Block From To Value
0xf565b129f23568cd8d98ca0425bc1dfa0a4451e6e1cf74b02006fd6ed452224a126424212021-11-14 12:50:3820 days 16 hrs ago BSC: Token Hub0x942149e78979931b1c6aea68cc1428c65675901e0.03267265 BNB
0xdbec452098f22cb05a46574e3d732be4ea40b03ff0e1f6682f1f164cb6ca60d4103939952021-08-27 12:07:3199 days 16 hrs ago PancakeSwap: Router v20x942149e78979931b1c6aea68cc1428c65675901e0.022006901634488774 BNB
0x4fa9975b55a9c18948ddfca58c5a10e247a6ea77832eea5df1e30c998efe8b55103939282021-08-27 12:04:1099 days 17 hrs ago PancakeSwap: Router v20x942149e78979931b1c6aea68cc1428c65675901e0.000046822662690503 BNB
[ Download CSV Export 
Loading

Contract Name:
0 BNB

Compiler Version
0

Optimization Enabled:
0 BNB

Other Settings:
-NA-
Block Transaction Gas Used Reward
Age Block Fee Address BC Fee Address Voting Power Jailed Incoming
Block Uncle Number Difficulty Gas Used Reward
Loading
Loading
Make sure to use the "Vote Down" button for any spammy posts, and the "Vote Up" for interesting conversations.